This is the latest recevied weather packets stored in our database for station/object DK6GC-10. If no packets are shown the sender has not sent any weather packets the latest 10 day(s).
| Time | Temp. | Humidity | Pressure | Rain* | Wind** | Luminosity | Snow |
|---|---|---|---|---|---|---|---|
| 1787989517 | 21.67° C | 61% | 1018.5 hPa | - | - | - | - |
| 1787988617 | 21.67° C | 65% | 1018.5 hPa | - | - | - | - |
| 1787987717 | 21.11° C | 64% | 1018.4 hPa | - | - | - | - |
| 1787986816 | 20.56° C | 64% | 1018.4 hPa | - | - | - | - |
| 1787985916 | 19.44° C | 67% | 1018.4 hPa | - | - | - | - |
| 1787985016 | 21.67° C | 59% | 1018.4 hPa | - | - | - | - |
| 1787984116 | 20° C | 65% | 1018.2 hPa | - | - | - | - |
| 1787983221 | 18.33° C | 74% | 1018.3 hPa | - | - | - | - |
| 1787982320 | 17.78° C | 78% | 1018.3 hPa | - | - | - | - |
| 1787981420 | 17.22° C | 83% | 1018.3 hPa | - | - | - | - |
| 1787980520 | 16.67° C | 88% | 1018.2 hPa | - | - | - | - |
| 1787979620 | 16.11° C | 89% | 1018.2 hPa | - | - | - | - |
| 1787978720 | 15.56° C | 90% | 1018.2 hPa | - | - | - | - |
| 1787977819 | 16.11° C | 88% | 1018.3 hPa | - | - | - | - |
| 1787976919 | 16.67° C | 86% | 1018.3 hPa | - | - | - | - |
| 1787976019 | 16.11° C | 86% | 1018.2 hPa | - | - | - | - |
| 1787975119 | 16.11° C | 87% | 1018.2 hPa | - | - | - | - |
| 1787974219 | 15.56° C | 85% | 1018.1 hPa | - | - | - | - |
| 1787973319 | 16.11° C | 82% | 1018 hPa | - | - | - | - |
| 1787972418 | 16.11° C | 83% | 1018.1 hPa | - | - | - | - |
| 1787971518 | 16.11° C | 84% | 1018.2 hPa | - | - | - | - |
| 1787970617 | 16.11° C | 82% | 1018.2 hPa | - | - | - | - |
| 1787969717 | 16.67° C | 81% | 1018.3 hPa | - | - | - | - |
| 1787968817 | 16.67° C | 82% | 1018.3 hPa | - | - | - | - |
| 1787967917 | 17.22° C | 81% | 1018.4 hPa | - | - | - | - |
* Rain since midnight (hover to see other rain measurements)
** Current wind speed in m/s (hover to see current wind gust speed)